Time;durP1;ratioP1;P1;durP2;ratioP2;P2;SDS_P1;SDS_P2;PMS_P1;PMS_P2;Temp;Humidity;BMP_temperature;BMP_pressure;BME280_temperature;BME280_humidity;BME280_pressure;Samples;Min_cycle;Max_cycle;Signal;HPM_P1;HPM_P2
2023/05/25 00:01:43;;;;;;;13.18;5.30;;;13.10;99.90;;;;;;5062923;28;20102;-75
2023/05/25 00:04:09;;;;;;;16.08;5.47;;;13.10;99.90;;;;;;5058924;28;20064;-76
2023/05/25 00:06:40;;;;;;;17.67;6.38;;;13.10;99.90;;;;;;5065387;28;20047;-75
2023/05/25 00:09:06;;;;;;;15.80;5.50;;;13.00;99.90;;;;;;5060302;28;20025;-75
2023/05/25 00:11:33;;;;;;;11.77;5.57;;;13.00;99.90;;;;;;5045327;28;20021;-75
2023/05/25 00:13:58;;;;;;;12.88;4.90;;;13.00;99.90;;;;;;5063154;28;20511;-75
2023/05/25 00:16:24;;;;;;;17.33;5.65;;;13.00;99.90;;;;;;5065043;28;20069;-75
2023/05/25 00:18:51;;;;;;;17.27;5.78;;;12.90;99.90;;;;;;5056797;28;20063;-75
2023/05/25 00:21:19;;;;;;;11.77;5.30;;;12.90;99.90;;;;;;5061441;28;20024;-75
2023/05/25 00:23:45;;;;;;;12.68;5.20;;;12.90;99.90;;;;;;5058224;28;20040;-76
2023/05/25 00:26:11;;;;;;;19.70;5.82;;;12.90;99.90;;;;;;5054970;28;20045;-76
2023/05/25 00:28:37;;;;;;;19.67;6.43;;;12.80;99.90;;;;;;5063188;28;20058;-75
2023/05/25 00:31:03;;;;;;;12.80;5.80;;;12.90;99.90;;;;;;5061338;28;20045;-75
2023/05/25 00:33:28;;;;;;;12.70;5.65;;;12.80;99.90;;;;;;5060022;28;20013;-75
2023/05/25 00:35:55;;;;;;;13.77;5.32;;;12.90;99.90;;;;;;5069978;28;20032;-75
2023/05/25 00:38:21;;;;;;;12.88;5.82;;;12.80;99.90;;;;;;5060651;28;20017;-75
2023/05/25 00:40:47;;;;;;;12.52;4.78;;;12.80;99.90;;;;;;5060779;28;20025;-75
2023/05/25 00:43:13;;;;;;;9.88;5.65;;;12.80;99.90;;;;;;5058136;28;20025;-75
2023/05/25 00:45:38;;;;;;;16.45;5.90;;;12.80;99.90;;;;;;5051851;28;20033;-75
2023/05/25 00:48:05;;;;;;;19.58;6.93;;;12.70;99.90;;;;;;5066313;28;20039;-75
2023/05/25 00:50:39;;;;;;;17.73;6.38;;;12.70;99.90;;;;;;5058024;28;20079;-75
2023/05/25 00:53:06;;;;;;;12.18;5.90;;;12.70;99.90;;;;;;5062459;28;20070;-75
2023/05/25 00:55:48;;;;;;;19.70;5.97;;;12.70;99.90;;;;;;5057260;28;20461;-75
2023/05/25 00:58:19;;;;;;;11.93;5.90;;;12.70;99.90;;;;;;5043590;28;20025;-75
2023/05/25 01:00:48;;;;;;;15.82;6.28;;;12.70;99.90;;;;;;5059906;28;20033;-75
2023/05/25 01:03:20;;;;;;;16.10;6.05;;;12.60;99.90;;;;;;5060028;28;20473;-75
2023/05/25 01:05:50;;;;;;;15.48;5.93;;;12.60;99.90;;;;;;5060348;28;20025;-74
2023/05/25 01:08:18;;;;;;;14.48;5.70;;;12.60;99.90;;;;;;5061373;28;20124;-75
2023/05/25 01:10:47;;;;;;;13.32;5.78;;;12.60;99.90;;;;;;5052329;28;20111;-75
2023/05/25 01:13:15;;;;;;;18.30;6.22;;;12.60;99.90;;;;;;5059004;28;20085;-74
2023/05/25 01:15:40;;;;;;;16.23;5.93;;;12.50;99.90;;;;;;5066403;28;20423;-75
2023/05/25 01:18:08;;;;;;;16.42;6.57;;;12.60;99.90;;;;;;5064083;28;20474;-74
2023/05/25 01:20:34;;;;;;;19.42;6.30;;;12.50;99.90;;;;;;5063790;28;20078;-74
2023/05/25 01:23:13;;;;;;;15.18;6.10;;;12.50;99.90;;;;;;5058185;28;20043;-75
2023/05/25 01:25:44;;;;;;;17.50;6.18;;;12.50;99.90;;;;;;5064597;28;20020;-75
2023/05/25 01:28:36;;;;;;;17.33;6.95;;;12.50;99.90;;;;;;5066354;28;20145;-74
2023/05/25 01:31:02;;;;;;;20.15;6.68;;;12.50;99.90;;;;;;5049154;28;20045;-74
2023/05/25 01:33:30;;;;;;;17.63;6.95;;;12.40;99.90;;;;;;5057497;28;20036;-74
2023/05/25 01:35:56;;;;;;;17.02;6.47;;;12.40;99.90;;;;;;5040685;28;20017;-74
2023/05/25 01:38:22;;;;;;;16.88;6.57;;;12.40;99.90;;;;;;5067044;28;20444;-74
2023/05/25 01:40:48;;;;;;;18.90;7.38;;;12.40;99.90;;;;;;5057352;28;20156;-75
2023/05/25 01:43:13;;;;;;;18.63;6.57;;;12.30;99.90;;;;;;5062597;28;20116;-74
2023/05/25 01:45:39;;;;;;;18.42;6.90;;;12.30;99.90;;;;;;5056245;28;20037;-74
2023/05/25 01:48:20;;;;;;;20.52;7.28;;;12.30;99.90;;;;;;5055418;28;20030;-74
2023/05/25 01:50:53;;;;;;;14.60;6.68;;;12.30;99.90;;;;;;5043288;28;20514;-74
2023/05/25 01:53:26;;;;;;;16.73;6.75;;;12.30;99.90;;;;;;5058151;28;20020;-75
2023/05/25 01:55:56;;;;;;;19.05;7.55;;;12.30;99.90;;;;;;5061190;28;20527;-74
2023/05/25 01:58:24;;;;;;;16.80;7.28;;;12.30;99.90;;;;;;5060548;28;20048;-74
2023/05/25 02:00:51;;;;;;;16.35;7.47;;;12.30;99.90;;;;;;5060448;28;20481;-74
2023/05/25 02:03:18;;;;;;;23.77;7.75;;;12.20;99.90;;;;;;5059202;28;20034;-74
2023/05/25 02:05:45;;;;;;;15.20;7.38;;;12.20;99.90;;;;;;5056045;28;20483;-74
2023/05/25 02:08:10;;;;;;;15.80;6.88;;;12.20;99.90;;;;;;5063729;28;20090;-74
2023/05/25 02:10:36;;;;;;;18.25;6.97;;;12.20;99.90;;;;;;5055650;28;20504;-74
2023/05/25 02:13:02;;;;;;;16.05;7.43;;;12.20;99.90;;;;;;5058152;28;20025;-74
2023/05/25 02:15:31;;;;;;;19.95;8.57;;;12.20;99.90;;;;;;5057560;28;20032;-74
2023/05/25 02:17:58;;;;;;;22.15;7.50;;;12.20;99.90;;;;;;5056615;28;20112;-74
2023/05/25 02:20:25;;;;;;;15.35;7.57;;;12.10;99.90;;;;;;5066063;28;20419;-74
2023/05/25 02:22:51;;;;;;;14.25;6.75;;;12.10;99.90;;;;;;5068141;28;20023;-75
2023/05/25 02:25:16;;;;;;;14.05;6.65;;;12.10;99.90;;;;;;5040977;28;20029;-74
2023/05/25 02:27:43;;;;;;;15.93;7.57;;;12.10;99.90;;;;;;5042866;28;20075;-74
2023/05/25 02:30:09;;;;;;;15.45;7.18;;;12.10;99.90;;;;;;5065596;28;20064;-74
2023/05/25 02:32:35;;;;;;;15.65;6.93;;;12.10;99.90;;;;;;5058000;28;20480;-74
2023/05/25 02:35:01;;;;;;;18.23;7.22;;;12.00;99.90;;;;;;5057189;28;20555;-74
2023/05/25 02:37:26;;;;;;;17.00;7.97;;;12.00;99.90;;;;;;5060709;28;20051;-74
2023/05/25 02:39:52;;;;;;;18.30;7.40;;;12.00;99.90;;;;;;5055157;28;20039;-75
2023/05/25 02:42:18;;;;;;;15.73;7.70;;;12.00;99.90;;;;;;5059310;28;20476;-75
2023/05/25 02:44:47;;;;;;;16.30;7.57;;;12.00;99.90;;;;;;5053055;28;20017;-75
2023/05/25 02:47:15;;;;;;;17.55;7.90;;;12.00;99.90;;;;;;5062945;28;20057;-74
2023/05/25 02:49:40;;;;;;;104.82;15.10;;;11.90;99.90;;;;;;5055151;28;20024;-74
2023/05/25 02:52:06;;;;;;;27.80;8.32;;;11.80;99.90;;;;;;5055408;28;20511;-74
2023/05/25 02:54:32;;;;;;;14.05;7.22;;;11.80;99.90;;;;;;5061297;28;20224;-74
2023/05/25 02:56:58;;;;;;;22.02;7.93;;;11.90;99.90;;;;;;5058317;28;20029;-75
2023/05/25 02:59:23;;;;;;;15.63;6.70;;;11.80;99.90;;;;;;5058412;28;20139;-74
2023/05/25 03:01:50;;;;;;;16.15;7.65;;;11.90;99.90;;;;;;5056187;28;20028;-74
2023/05/25 03:04:16;;;;;;;13.25;7.18;;;11.80;99.90;;;;;;5055741;28;20021;-73
2023/05/25 03:06:44;;;;;;;13.43;7.03;;;11.80;99.90;;;;;;5056530;28;20115;-73
2023/05/25 03:09:09;;;;;;;15.40;7.45;;;11.80;99.90;;;;;;5056120;28;20016;-73
2023/05/25 03:11:35;;;;;;;18.08;8.40;;;11.80;99.90;;;;;;5055053;28;20078;-73
2023/05/25 03:14:01;;;;;;;20.73;8.70;;;11.80;99.90;;;;;;5060756;28;20032;-74
2023/05/25 03:16:26;;;;;;;13.13;7.50;;;11.80;99.90;;;;;;5046529;28;20060;-74
2023/05/25 03:18:52;;;;;;;14.13;6.20;;;11.80;99.90;;;;;;5058411;28;20028;-74
2023/05/25 03:21:18;;;;;;;14.68;8.05;;;11.80;99.90;;;;;;5059728;28;20017;-74
2023/05/25 03:23:44;;;;;;;17.63;8.48;;;11.80;99.90;;;;;;5061580;28;20039;-74
2023/05/25 03:26:10;;;;;;;18.58;7.90;;;11.70;99.90;;;;;;5060302;28;20024;-74
2023/05/25 03:28:35;;;;;;;16.85;7.55;;;11.60;99.90;;;;;;5062095;28;20009;-74
2023/05/25 03:31:01;;;;;;;18.63;7.88;;;11.60;99.90;;;;;;5063290;28;20055;-74
2023/05/25 03:33:27;;;;;;;15.15;8.23;;;11.60;99.90;;;;;;5061689;28;20165;-74
2023/05/25 03:35:52;;;;;;;15.80;7.25;;;11.60;99.90;;;;;;5059719;28;20469;-74
2023/05/25 03:38:18;;;;;;;16.83;7.97;;;11.70;99.90;;;;;;5058778;28;20569;-74
2023/05/25 03:40:44;;;;;;;20.40;7.68;;;11.70;99.90;;;;;;5053832;28;20111;-74
2023/05/25 03:43:10;;;;;;;17.10;8.00;;;11.60;99.90;;;;;;5055277;28;20385;-73
2023/05/25 03:45:35;;;;;;;16.95;7.45;;;11.70;99.90;;;;;;5044023;28;20135;-74
2023/05/25 03:48:01;;;;;;;18.60;7.88;;;11.60;99.90;;;;;;5044568;28;20036;-73
2023/05/25 03:50:26;;;;;;;19.63;7.93;;;11.60;99.90;;;;;;5056552;28;20473;-74
2023/05/25 03:52:52;;;;;;;20.83;7.95;;;11.60;99.90;;;;;;5045298;28;20028;-73
2023/05/25 03:55:18;;;;;;;17.65;7.28;;;11.60;99.90;;;;;;5056402;28;20029;-74
2023/05/25 03:57:44;;;;;;;16.48;7.00;;;11.60;99.90;;;;;;5057406;28;20029;-74
2023/05/25 04:00:10;;;;;;;13.32;7.60;;;11.60;99.90;;;;;;5041580;28;20033;-73
2023/05/25 04:02:36;;;;;;;18.85;8.05;;;11.50;99.90;;;;;;5061486;28;20028;-73
2023/05/25 04:05:02;;;;;;;17.88;7.88;;;11.50;99.90;;;;;;5048539;28;20036;-73
2023/05/25 04:07:29;;;;;;;15.27;7.78;;;11.60;99.90;;;;;;5064498;28;20101;-73
2023/05/25 04:09:58;;;;;;;15.55;7.40;;;11.60;99.90;;;;;;5055603;28;20529;-73
2023/05/25 04:12:24;;;;;;;17.77;7.65;;;11.60;99.90;;;;;;5044041;28;20029;-72
2023/05/25 04:14:51;;;;;;;17.27;8.73;;;11.60;99.90;;;;;;5054165;28;20163;-73
2023/05/25 04:17:18;;;;;;;18.65;9.23;;;11.50;99.90;;;;;;5054112;28;20089;-72
2023/05/25 04:19:43;;;;;;;17.98;7.70;;;11.40;99.90;;;;;;5054151;28;20021;-73
2023/05/25 04:22:09;;;;;;;20.23;8.40;;;11.40;99.90;;;;;;5059311;28;20035;-73
2023/05/25 04:24:35;;;;;;;19.38;8.32;;;11.40;99.90;;;;;;5059809;28;20362;-73
2023/05/25 04:27:01;;;;;;;18.38;9.13;;;11.50;99.90;;;;;;5062108;28;20032;-73
2023/05/25 04:29:27;;;;;;;18.30;9.07;;;11.50;99.90;;;;;;5054092;28;20436;-73
2023/05/25 04:31:53;;;;;;;12.68;6.68;;;11.50;99.90;;;;;;5057757;28;20037;-73
2023/05/25 04:34:20;;;;;;;22.83;9.27;;;11.50;99.90;;;;;;5061819;28;20492;-74
2023/05/25 04:36:46;;;;;;;16.40;8.02;;;11.50;99.90;;;;;;5059110;28;20025;-74
2023/05/25 04:39:12;;;;;;;17.60;9.18;;;11.50;99.90;;;;;;5067087;28;20032;-74
2023/05/25 04:41:38;;;;;;;12.93;7.65;;;11.60;99.90;;;;;;5058593;28;20710;-74
2023/05/25 04:44:04;;;;;;;16.10;7.95;;;11.60;99.90;;;;;;5057354;28;20244;-73
2023/05/25 04:46:30;;;;;;;21.65;8.20;;;11.60;99.90;;;;;;5062638;28;20032;-73
2023/05/25 04:48:56;;;;;;;16.75;8.95;;;11.60;99.90;;;;;;5061564;28;20104;-73
2023/05/25 04:51:22;;;;;;;20.02;8.60;;;11.60;99.90;;;;;;5062917;28;20111;-72
2023/05/25 04:53:48;;;;;;;19.58;9.07;;;11.60;99.90;;;;;;5056307;28;20017;-73
2023/05/25 04:56:14;;;;;;;18.08;8.85;;;11.60;99.90;;;;;;5063854;28;20033;-73
2023/05/25 04:58:41;;;;;;;21.58;10.02;;;11.60;99.90;;;;;;5064340;28;20020;-73
2023/05/25 05:01:07;;;;;;;16.83;9.52;;;11.60;99.90;;;;;;5062015;28;20025;-72
2023/05/25 05:03:32;;;;;;;19.83;8.55;;;11.60;99.90;;;;;;5044806;28;20040;-72
2023/05/25 05:05:58;;;;;;;18.92;8.30;;;11.60;99.90;;;;;;5058324;28;20021;-72
2023/05/25 05:08:24;;;;;;;22.48;9.07;;;11.70;99.90;;;;;;5061148;28;20090;-72
2023/05/25 05:10:49;;;;;;;17.33;8.55;;;11.70;99.90;;;;;;5062416;28;20473;-73
2023/05/25 05:13:16;;;;;;;20.80;9.02;;;11.70;99.90;;;;;;5063148;28;20033;-73
2023/05/25 05:15:41;;;;;;;21.00;8.88;;;11.80;99.90;;;;;;5058636;28;20566;-73
2023/05/25 05:18:07;;;;;;;18.45;9.75;;;11.90;99.90;;;;;;5051017;28;20029;-73
2023/05/25 05:20:33;;;;;;;16.45;9.02;;;11.80;99.90;;;;;;5039492;28;20043;-73
2023/05/25 05:22:59;;;;;;;26.08;11.05;;;11.90;99.90;;;;;;5056579;28;20477;-73
2023/05/25 05:25:25;;;;;;;20.52;9.25;;;11.90;99.90;;;;;;5046935;28;20036;-72
2023/05/25 05:27:50;;;;;;;20.02;10.00;;;11.90;99.90;;;;;;5059664;28;20021;-73
2023/05/25 05:30:16;;;;;;;17.38;9.93;;;11.90;99.90;;;;;;5054765;28;20037;-72
2023/05/25 05:32:42;;;;;;;23.25;10.73;;;12.00;99.90;;;;;;5059600;28;20029;-73
2023/05/25 05:35:07;;;;;;;27.73;10.52;;;11.80;99.90;;;;;;5053108;28;20896;-72
2023/05/25 05:37:33;;;;;;;22.92;10.80;;;11.90;99.90;;;;;;5053725;28;20036;-72
2023/05/25 05:39:59;;;;;;;18.52;9.93;;;12.00;99.90;;;;;;5053390;28;20082;-73
2023/05/25 05:42:24;;;;;;;23.20;10.30;;;12.00;99.90;;;;;;5035866;28;20061;-73
2023/05/25 05:44:50;;;;;;;26.02;11.40;;;12.00;99.90;;;;;;5053724;28;20033;-73
2023/05/25 05:47:16;;;;;;;19.80;10.40;;;12.10;99.90;;;;;;5064645;28;20059;-72
2023/05/25 05:49:41;;;;;;;21.17;9.88;;;12.10;99.90;;;;;;5064328;28;20028;-72
2023/05/25 05:52:09;;;;;;;22.83;9.57;;;12.10;99.90;;;;;;5053331;28;20438;-72
2023/05/25 05:54:34;;;;;;;21.05;10.80;;;12.10;99.90;;;;;;5053711;28;20139;-72
2023/05/25 05:57:01;;;;;;;15.13;9.60;;;12.20;99.90;;;;;;5053948;28;20047;-73
2023/05/25 05:59:27;;;;;;;18.90;10.60;;;12.30;99.90;;;;;;5054655;28;20021;-73
2023/05/25 06:01:52;;;;;;;23.92;9.15;;;12.30;99.90;;;;;;5060267;28;20048;-73
2023/05/25 06:04:18;;;;;;;22.48;10.80;;;12.40;99.90;;;;;;5062666;28;20047;-73
2023/05/25 06:06:44;;;;;;;22.05;10.18;;;12.30;99.90;;;;;;5063186;28;20509;-73
2023/05/25 06:09:10;;;;;;;23.10;10.55;;;12.40;99.90;;;;;;5061356;28;20020;-72
2023/05/25 06:11:38;;;;;;;20.05;9.57;;;12.40;99.90;;;;;;5045505;28;20036;-72
2023/05/25 06:14:04;;;;;;;25.77;9.45;;;12.40;99.90;;;;;;5061242;28;20043;-71
2023/05/25 06:16:30;;;;;;;22.80;9.02;;;12.50;99.90;;;;;;5063123;28;20013;-72
2023/05/25 06:18:55;;;;;;;23.23;9.68;;;12.60;99.90;;;;;;5062235;28;20044;-72
2023/05/25 06:21:21;;;;;;;23.75;9.45;;;12.60;99.90;;;;;;5044780;28;20047;-72
2023/05/25 06:23:47;;;;;;;21.60;9.77;;;12.60;99.90;;;;;;5063118;28;20462;-71
2023/05/25 06:26:13;;;;;;;20.13;8.77;;;12.70;99.90;;;;;;5066707;28;20059;-72
2023/05/25 06:28:38;;;;;;;16.45;8.45;;;12.70;99.90;;;;;;5055935;28;20029;-73
2023/05/25 06:31:05;;;;;;;17.40;9.15;;;12.70;99.90;;;;;;5070561;28;20093;-73
2023/05/25 06:33:30;;;;;;;20.50;8.57;;;12.60;99.90;;;;;;5066707;28;20024;-73
2023/05/25 06:35:59;;;;;;;22.50;9.20;;;12.70;99.90;;;;;;5062524;28;20039;-73
2023/05/25 06:38:26;;;;;;;16.55;8.35;;;12.70;99.90;;;;;;5051795;28;20056;-73
2023/05/25 06:40:52;;;;;;;21.20;8.95;;;12.80;99.90;;;;;;5056815;28;20545;-73
2023/05/25 06:43:18;;;;;;;30.13;9.57;;;12.90;99.90;;;;;;5043701;28;20091;-72
2023/05/25 06:45:43;;;;;;;15.90;8.00;;;12.90;99.90;;;;;;5063634;28;20384;-73
2023/05/25 06:48:10;;;;;;;21.92;8.88;;;13.00;99.90;;;;;;5054629;28;20112;-73
2023/05/25 06:50:36;;;;;;;19.17;9.10;;;13.00;99.90;;;;;;5072800;28;20033;-73
2023/05/25 06:53:01;;;;;;;22.33;9.85;;;13.20;99.90;;;;;;5072666;28;20024;-73
2023/05/25 06:55:27;;;;;;;17.25;8.63;;;13.30;99.90;;;;;;5065028;28;20060;-73
2023/05/25 06:57:53;;;;;;;19.67;7.65;;;13.50;99.90;;;;;;5066426;28;20021;-74
2023/05/25 07:00:20;;;;;;;18.90;8.38;;;13.60;99.90;;;;;;5059367;28;20036;-73
2023/05/25 07:02:46;;;;;;;16.98;8.75;;;13.70;99.90;;;;;;5071543;28;20036;-75
2023/05/25 07:05:11;;;;;;;19.52;8.20;;;13.70;99.90;;;;;;5051639;28;20033;-74
2023/05/25 07:07:37;;;;;;;16.45;7.97;;;13.80;99.90;;;;;;5054973;28;20021;-74
2023/05/25 07:10:03;;;;;;;18.35;7.60;;;13.90;99.90;;;;;;5035047;28;20036;-74
2023/05/25 07:12:30;;;;;;;24.30;8.85;;;14.10;99.90;;;;;;5071231;28;20416;-74
2023/05/25 07:14:56;;;;;;;16.73;7.68;;;14.30;99.90;;;;;;5072484;28;20032;-74
2023/05/25 07:17:22;;;;;;;20.25;9.02;;;14.50;99.90;;;;;;5072343;28;20485;-73
2023/05/25 07:19:48;;;;;;;20.55;7.75;;;14.50;99.90;;;;;;5072618;28;20096;-74
2023/05/25 07:22:18;;;;;;;16.52;7.75;;;14.70;99.90;;;;;;5072510;28;20496;-73
2023/05/25 07:24:46;;;;;;;17.90;7.35;;;14.80;99.90;;;;;;5072438;28;20024;-74
2023/05/25 07:27:13;;;;;;;15.98;7.57;;;14.90;99.90;;;;;;5071947;28;20029;-74
2023/05/25 07:29:39;;;;;;;20.60;7.45;;;15.00;99.90;;;;;;5054124;28;20025;-74
2023/05/25 07:32:05;;;;;;;14.30;7.18;;;15.10;99.90;;;;;;5072143;28;20086;-74
2023/05/25 07:34:32;;;;;;;18.52;6.70;;;15.10;99.90;;;;;;5072428;28;20403;-73
2023/05/25 07:36:58;;;;;;;21.00;6.95;;;15.30;99.90;;;;;;5072253;28;20016;-74
2023/05/25 07:39:24;;;;;;;20.30;7.60;;;15.50;99.90;;;;;;5072616;28;20078;-74
2023/05/25 07:41:49;;;;;;;12.05;5.85;;;15.50;99.90;;;;;;5071784;28;20033;-73
2023/05/25 07:44:15;;;;;;;19.95;7.20;;;15.70;99.90;;;;;;5071987;28;20405;-73
2023/05/25 07:46:42;;;;;;;18.75;6.95;;;15.70;99.90;;;;;;5071995;28;20481;-74
2023/05/25 07:49:12;;;;;;;25.92;7.50;;;15.90;99.90;;;;;;5072050;28;20035;-73
2023/05/25 07:51:38;;;;;;;12.65;6.07;;;15.90;99.90;;;;;;5063378;28;20036;-73
2023/05/25 07:54:03;;;;;;;16.75;7.40;;;16.00;99.90;;;;;;5058989;28;20085;-73
2023/05/25 07:56:29;;;;;;;17.52;6.95;;;15.90;99.90;;;;;;5052282;28;20025;-73
2023/05/25 07:58:55;;;;;;;16.35;7.82;;;15.90;99.90;;;;;;5051586;28;20409;-73
2023/05/25 08:01:21;;;;;;;18.38;6.72;;;15.80;99.90;;;;;;5052102;28;20052;-74
2023/05/25 08:03:47;;;;;;;19.15;6.53;;;16.10;99.90;;;;;;5051806;28;20051;-73
2023/05/25 08:06:13;;;;;;;16.98;6.43;;;16.30;99.90;;;;;;5053022;28;20024;-74
2023/05/25 08:08:40;;;;;;;12.10;6.30;;;16.50;99.90;;;;;;5047626;28;20024;-75
2023/05/25 08:11:06;;;;;;;17.70;6.55;;;16.80;99.90;;;;;;5057374;28;20098;-75
2023/05/25 08:13:32;;;;;;;17.73;6.35;;;16.90;99.90;;;;;;5075036;28;20546;-74
2023/05/25 08:15:57;;;;;;;13.55;6.95;;;16.70;99.90;;;;;;5057370;28;20055;-75
2023/05/25 08:18:23;;;;;;;15.43;5.85;;;16.50;99.90;;;;;;5074718;28;20124;-77
2023/05/25 08:20:49;;;;;;;13.95;5.75;;;16.70;99.90;;;;;;5074465;28;20020;-76
2023/05/25 08:23:15;;;;;;;14.07;5.90;;;16.90;99.90;;;;;;5075001;28;20024;-75
2023/05/25 08:25:40;;;;;;;12.65;5.93;;;16.80;99.90;;;;;;5075604;28;20036;-75
2023/05/25 08:28:06;;;;;;;13.55;5.25;;;16.90;99.90;;;;;;5075056;28;20024;-74
2023/05/25 08:30:32;;;;;;;14.68;6.00;;;17.00;99.90;;;;;;5073551;28;20579;-76
2023/05/25 08:32:58;;;;;;;14.77;5.40;;;17.10;99.90;;;;;;5075170;28;20389;-76
2023/05/25 08:35:24;;;;;;;11.68;5.57;;;16.70;99.90;;;;;;5074785;28;20029;-73
2023/05/25 08:37:49;;;;;;;13.35;5.50;;;16.90;99.90;;;;;;5074336;28;20025;-79
2023/05/25 08:40:17;;;;;;;11.57;5.40;;;17.20;99.90;;;;;;5069994;28;20021;-79
2023/05/25 08:42:44;;;;;;;12.77;5.80;;;17.20;99.90;;;;;;5054182;28;20032;-81
2023/05/25 08:45:10;;;;;;;8.00;4.80;;;17.30;99.90;;;;;;5054532;28;20029;-77
2023/05/25 08:47:43;;;;;;;14.68;5.93;;;17.40;99.90;;;;;;5054597;28;20098;-76
2023/05/25 08:50:11;;;;;;;10.10;5.00;;;17.40;99.90;;;;;;5054556;28;20025;-78
2023/05/25 08:52:45;;;;;;;12.10;5.75;;;17.60;99.90;;;;;;5053863;28;20029;-78
2023/05/25 08:55:11;;;;;;;9.82;5.13;;;17.70;99.90;;;;;;5054084;28;20517;-77
2023/05/25 08:57:51;;;;;;;12.88;5.40;;;17.80;99.90;;;;;;5072878;28;20568;-76
2023/05/25 09:00:23;;;;;;;11.48;5.10;;;17.80;99.90;;;;;;5073215;28;20024;-77
2023/05/25 09:02:50;;;;;;;12.40;5.50;;;17.90;99.90;;;;;;5074161;28;20481;-78
2023/05/25 09:05:16;;;;;;;12.63;4.80;;;18.20;99.90;;;;;;5074305;28;20016;-77
2023/05/25 09:07:43;;;;;;;14.32;5.20;;;18.50;99.90;;;;;;5074229;28;20389;-76
2023/05/25 09:10:10;;;;;;;9.63;4.63;;;18.60;99.90;;;;;;5072096;28;20056;-76
2023/05/25 09:12:37;;;;;;;8.57;4.22;;;18.90;99.90;;;;;;5074379;28;20021;-77
2023/05/25 09:15:03;;;;;;;12.85;4.45;;;19.10;99.90;;;;;;5073781;28;20388;-76
2023/05/25 09:17:30;;;;;;;9.60;5.60;;;19.10;99.90;;;;;;5073957;28;20081;-84
2023/05/25 09:19:57;;;;;;;10.75;4.53;;;18.90;99.90;;;;;;5057685;28;20107;-81
2023/05/25 09:22:23;;;;;;;7.53;4.30;;;18.80;99.90;;;;;;5075283;28;20032;-86
2023/05/25 09:24:49;;;;;;;10.57;4.20;;;18.60;99.90;;;;;;5074484;28;20016;-78
2023/05/25 09:27:20;;;;;;;6.07;4.13;;;18.50;99.90;;;;;;5074320;28;20111;-84
2023/05/25 09:29:47;;;;;;;9.15;3.85;;;18.20;99.90;;;;;;5073569;28;20024;-77
2023/05/25 09:32:13;;;;;;;14.35;5.45;;;18.10;99.90;;;;;;5055851;28;20036;-78
2023/05/25 09:34:41;;;;;;;7.35;4.43;;;18.00;99.90;;;;;;5072755;28;20021;-79
2023/05/25 09:37:15;;;;;;;10.50;3.97;;;18.00;99.90;;;;;;5045889;28;20032;-79
2023/05/25 09:39:42;;;;;;;10.40;4.38;;;18.00;99.90;;;;;;5074084;28;20013;-79
2023/05/25 09:42:09;;;;;;;8.25;4.45;;;17.90;99.90;;;;;;5072900;28;20028;-78
2023/05/25 09:44:35;;;;;;;8.55;4.32;;;17.80;99.90;;;;;;5073769;28;20068;-78
2023/05/25 09:47:02;;;;;;;13.27;4.85;;;18.20;99.90;;;;;;5073740;28;20055;-78
2023/05/25 09:49:28;;;;;;;9.13;4.13;;;18.20;99.90;;;;;;5073397;28;20704;-78
2023/05/25 09:51:54;;;;;;;10.43;4.90;;;18.20;99.90;;;;;;5073577;28;20032;-78
2023/05/25 09:54:24;;;;;;;9.63;4.80;;;18.20;99.90;;;;;;5073547;28;20053;-79
2023/05/25 09:56:50;;;;;;;7.35;4.15;;;18.10;99.90;;;;;;5061173;28;20033;-78
2023/05/25 09:59:16;;;;;;;10.55;4.70;;;18.10;99.90;;;;;;5036857;28;20055;-79
2023/05/25 10:01:43;;;;;;;9.10;4.35;;;17.90;99.90;;;;;;5065310;28;20024;-79
2023/05/25 10:04:09;;;;;;;7.22;4.50;;;18.00;99.90;;;;;;5073061;28;20021;-79
2023/05/25 10:06:38;;;;;;;9.80;4.53;;;18.10;99.90;;;;;;5073070;28;20043;-79
2023/05/25 10:09:07;;;;;;;8.10;4.43;;;18.00;99.90;;;;;;5071133;28;20028;-80
2023/05/25 10:11:35;;;;;;;10.02;5.28;;;18.10;99.90;;;;;;5072833;28;20029;-79
2023/05/25 10:14:06;;;;;;;9.77;4.57;;;18.10;99.90;;;;;;5055216;28;20468;-79
2023/05/25 10:16:33;;;;;;;10.07;4.93;;;18.20;99.90;;;;;;5055477;28;20028;-79
2023/05/25 10:19:08;;;;;;;12.73;4.18;;;18.20;99.90;;;;;;5072347;28;20060;-80
2023/05/25 10:21:36;;;;;;;11.20;3.47;;;18.10;99.90;;;;;;5055445;28;20020;-79
2023/05/25 10:24:13;;;;;;;11.38;3.83;;;18.20;99.90;;;;;;5049305;28;20016;-80
2023/05/25 10:26:45;;;;;;;8.75;4.05;;;18.30;99.90;;;;;;5055506;28;20078;-80
2023/05/25 10:29:12;;;;;;;8.45;4.65;;;18.30;99.90;;;;;;5051683;28;20056;-79
2023/05/25 10:31:38;;;;;;;9.30;4.03;;;18.20;99.90;;;;;;5064294;28;20035;-79
2023/05/25 10:34:04;;;;;;;18.10;5.05;;;18.30;99.90;;;;;;5072918;28;20024;-79
2023/05/25 10:36:32;;;;;;;10.57;4.00;;;18.50;99.90;;;;;;5054804;28;20028;-79
2023/05/25 10:38:59;;;;;;;10.82;4.43;;;18.60;99.90;;;;;;5072871;28;20043;-80
2023/05/25 10:41:25;;;;;;;10.43;4.35;;;18.60;99.90;;;;;;5054326;28;20032;-80
2023/05/25 10:43:52;;;;;;;11.55;4.43;;;18.60;99.90;;;;;;5073180;28;20100;-79
2023/05/25 10:46:18;;;;;;;13.32;4.68;;;18.50;99.90;;;;;;5052246;28;20137;-82
2023/05/25 10:48:49;;;;;;;10.13;5.03;;;18.50;99.90;;;;;;5052442;28;20450;-81
2023/05/25 10:51:17;;;;;;;10.90;5.05;;;18.30;99.90;;;;;;5052456;28;20035;-82
2023/05/25 10:53:58;;;;;;;12.30;5.80;;;18.30;99.90;;;;;;5052571;28;20033;-79
2023/05/25 10:56:24;;;;;;;15.27;5.50;;;18.40;99.90;;;;;;5054193;28;20374;-81
2023/05/25 10:58:52;;;;;;;13.20;5.55;;;18.50;99.90;;;;;;5072224;28;20031;-82
2023/05/25 11:01:18;;;;;;;11.35;4.90;;;18.70;99.90;;;;;;5072286;28;20107;-82
2023/05/25 11:03:43;;;;;;;10.15;4.60;;;18.80;99.90;;;;;;5072605;28;20512;-79
2023/05/25 11:06:16;;;;;;;18.30;5.60;;;18.90;99.90;;;;;;5052944;28;20031;-81
2023/05/25 11:08:55;;;;;;;10.82;4.75;;;18.90;99.90;;;;;;5067163;28;20036;-84
2023/05/25 11:11:44;;;;;;;13.93;5.45;;;18.80;99.90;;;;;;5071874;28;20032;-80
2023/05/25 11:14:28;;;;;;;13.50;5.40;;;18.90;99.90;;;;;;5071661;28;20044;-82
2023/05/25 11:17:11;;;;;;;13.07;4.65;;;18.80;99.90;;;;;;5065239;28;20035;-80
2023/05/25 11:19:54;;;;;;;15.93;5.00;;;18.90;99.90;;;;;;5062406;28;20039;-80
2023/05/25 11:22:31;;;;;;;12.35;5.38;;;19.00;99.90;;;;;;5060080;28;20092;-81
2023/05/25 11:24:58;;;;;;;12.02;5.07;;;19.00;99.90;;;;;;5053248;28;20499;-81
2023/05/25 11:27:26;;;;;;;15.75;5.43;;;18.90;99.90;;;;;;5056692;28;20013;-84
2023/05/25 11:29:53;;;;;;;12.05;5.18;;;19.00;99.90;;;;;;5064985;28;20025;-83
2023/05/25 11:32:19;;;;;;;10.68;4.25;;;19.00;99.90;;;;;;5071791;28;20020;-82
2023/05/25 11:34:51;;;;;;;10.40;4.43;;;19.10;99.90;;;;;;5067176;28;20031;-80
2023/05/25 11:37:23;;;;;;;9.50;4.13;;;19.00;99.90;;;;;;5053792;28;20112;-81
2023/05/25 11:39:50;;;;;;;7.95;3.95;;;19.00;99.90;;;;;;5047097;28;20025;-82
2023/05/25 11:42:19;;;;;;;18.17;4.82;;;19.00;99.90;;;;;;5060731;28;20024;-82
2023/05/25 11:44:44;;;;;;;10.25;4.80;;;19.00;99.90;;;;;;5075753;28;20207;-79
2023/05/25 11:47:13;;;;;;;8.77;4.13;;;18.90;99.90;;;;;;5075399;28;20384;-79
2023/05/25 11:49:44;;;;;;;9.60;4.60;;;18.90;99.90;;;;;;5074404;28;20021;-79
2023/05/25 11:52:21;;;;;;;10.60;4.07;;;18.90;99.90;;;;;;5059455;28;20040;-79
2023/05/25 11:54:47;;;;;;;14.95;4.35;;;19.00;99.90;;;;;;5054818;28;20021;-79
2023/05/25 11:57:24;;;;;;;11.95;4.45;;;19.00;99.90;;;;;;5054558;28;20028;-79
2023/05/25 11:59:56;;;;;;;9.18;3.97;;;19.00;99.90;;;;;;5055407;28;20021;-80
2023/05/25 12:02:22;;;;;;;10.93;4.65;;;19.00;99.90;;;;;;5073087;28;20021;-79
2023/05/25 12:04:56;;;;;;;11.65;5.10;;;19.10;99.90;;;;;;5075427;28;20078;-78
2023/05/25 12:07:22;;;;;;;13.07;4.47;;;19.00;99.90;;;;;;5068441;28;20754;-79
2023/05/25 12:09:48;;;;;;;10.95;4.47;;;19.10;99.90;;;;;;5067463;28;20035;-78
2023/05/25 12:12:13;;;;;;;12.13;4.65;;;19.10;99.90;;;;;;5079642;28;20127;-79
2023/05/25 12:14:49;;;;;;;13.13;4.30;;;19.20;99.90;;;;;;5077085;28;20420;-79
2023/05/25 12:17:20;;;;;;;10.30;4.85;;;19.20;99.90;;;;;;5074230;28;20024;-79
2023/05/25 12:19:46;;;;;;;9.30;4.50;;;19.60;99.90;;;;;;5075396;28;20472;-79
2023/05/25 12:22:15;;;;;;;15.63;4.65;;;19.80;99.90;;;;;;5073641;28;20032;-79
2023/05/25 12:24:42;;;;;;;11.25;4.80;;;19.80;99.90;;;;;;5077370;28;20025;-80
2023/05/25 12:27:18;;;;;;;13.20;4.60;;;19.70;99.90;;;;;;5056119;28;20036;-77
2023/05/25 12:29:47;;;;;;;16.33;5.47;;;19.40;99.90;;;;;;5055254;28;20366;-78
2023/05/25 12:32:13;;;;;;;16.13;5.75;;;19.20;99.90;;;;;;5061583;28;20028;-76
2023/05/25 12:34:39;;;;;;;12.00;5.22;;;19.20;99.90;;;;;;5074905;28;20092;-78
2023/05/25 12:37:20;;;;;;;9.70;4.25;;;19.20;99.90;;;;;;5069576;28;20491;-77
2023/05/25 12:39:46;;;;;;;19.38;4.68;;;19.60;99.90;;;;;;5055189;28;20122;-77